Terminal Aerodrome Forecast
Issued by NWS Topeka, KS

Home | Current Version | Previous Version | Text Only | Print | Product List | Glossary Off
Versions: 1 2 3 4 5 6 7 8 9 10 11 12 13 14 15 16 17 18 19 20 21 22

000
FTUS43 KTOP 151500 AAA
TAFTOP
TAF AMD
KTOP 151526Z 1515/1612 20011KT P6SM SCT015 BKN080
      TEMPO 1516/1518 26016G23KT 4SM -RA BR BKN010
     FM152200 30018G27KT P6SM OVC025=

USA.gov is the U.S. government's official web portal to all federal, state and local government web resources and services.